Time;durP1;ratioP1;P1;durP2;ratioP2;P2;SDS_P1;SDS_P2;PMS_P1;PMS_P2;Temp;Humidity;BMP_temperature;BMP_pressure;BME280_temperature;BME280_humidity;BME280_pressure;Samples;Min_cycle;Max_cycle;Signal;HPM_P1;HPM_P2
2023/04/22 00:00:03;;;;;;;5.50;3.33;;;;;;;;;;1028391;28;20057;-73
2023/04/22 00:00:34;;;;;;;2.80;2.03;;;;;;;;;;1032074;28;20030;-73
2023/04/22 00:01:05;;;;;;;6.63;1.95;;;;;;;;;;1028112;28;20102;-73
2023/04/22 00:01:36;;;;;;;2.88;2.10;;;;;;;;;;1027874;28;20117;-73
2023/04/22 00:02:06;;;;;;;4.68;2.17;;;;;;;;;;1028452;28;20023;-73
2023/04/22 00:02:37;;;;;;;5.05;1.88;;;;;;;;;;1028154;28;20033;-73
2023/04/22 00:03:07;;;;;;;4.40;2.97;;;;;;;;;;1032448;28;20025;-73
2023/04/22 00:03:40;;;;;;;12.20;3.28;;;;;;;;;;1027465;28;20507;-73
2023/04/22 00:04:11;;;;;;;2.45;1.60;;;;;;;;;;1024193;29;20115;-73
2023/04/22 00:04:44;;;;;;;15.32;3.53;;;;;;;;;;1024612;29;20027;-73
2023/04/22 00:05:17;;;;;;;3.97;2.55;;;;;;;;;;1025104;28;20019;-73
2023/04/22 00:05:47;;;;;;;8.02;3.33;;;;;;;;;;1028687;28;20077;-73
2023/04/22 00:06:18;;;;;;;5.72;3.25;;;;;;;;;;1032478;28;20080;-73
2023/04/22 00:06:48;;;;;;;5.38;3.20;;;;;;;;;;1032273;28;20025;-73
2023/04/22 00:07:19;;;;;;;1.60;1.42;;;;;;;;;;1027885;28;20026;-73
2023/04/22 00:07:49;;;;;;;4.85;2.38;;;;;;;;;;1027794;28;20046;-73
2023/04/22 00:08:20;;;;;;;17.85;3.35;;;;;;;;;;1028002;28;20137;-73
2023/04/22 00:08:50;;;;;;;10.82;4.68;;;;;;;;;;1028046;28;20030;-73
2023/04/22 00:09:21;;;;;;;8.48;3.53;;;;;;;;;;1027895;28;20391;-73
2023/04/22 00:09:51;;;;;;;2.53;2.33;;;;;;;;;;1027942;28;20074;-73
2023/04/22 00:10:22;;;;;;;6.93;3.55;;;;;;;;;;1028036;28;20048;-73
2023/04/22 00:10:52;;;;;;;14.20;2.95;;;;;;;;;;1028062;28;20019;-73
2023/04/22 00:11:23;;;;;;;3.67;2.40;;;;;;;;;;1032436;28;20085;-73
2023/04/22 00:11:53;;;;;;;6.03;3.00;;;;;;;;;;1032847;28;20045;-73
2023/04/22 00:12:24;;;;;;;4.80;2.10;;;;;;;;;;1032158;28;20084;-73
2023/04/22 00:12:54;;;;;;;7.45;2.83;;;;;;;;;;1032428;28;20470;-73
2023/04/22 00:13:25;;;;;;;6.25;2.92;;;;;;;;;;1032642;28;20021;-73
2023/04/22 00:13:55;;;;;;;3.95;2.28;;;;;;;;;;1032347;28;20121;-73
2023/04/22 00:14:26;;;;;;;2.78;1.98;;;;;;;;;;1032725;28;20417;-73
2023/04/22 00:14:56;;;;;;;2.83;2.08;;;;;;;;;;1032498;28;20048;-73
2023/04/22 00:15:27;;;;;;;6.82;4.38;;;;;;;;;;1031992;28;20466;-73
2023/04/22 00:15:57;;;;;;;5.18;3.35;;;;;;;;;;1028937;28;20049;-73
2023/04/22 00:16:28;;;;;;;7.78;2.80;;;;;;;;;;1027743;28;20030;-73
2023/04/22 00:16:58;;;;;;;8.13;3.08;;;;;;;;;;1028123;28;20368;-73
2023/04/22 00:17:29;;;;;;;3.13;2.78;;;;;;;;;;1028043;28;20105;-73
2023/04/22 00:17:59;;;;;;;3.00;2.70;;;;;;;;;;1033063;28;20064;-73
2023/04/22 00:18:30;;;;;;;4.85;2.65;;;;;;;;;;1027514;28;20022;-73
2023/04/22 00:19:00;;;;;;;5.05;3.13;;;;;;;;;;1027681;28;20022;-74
2023/04/22 00:19:31;;;;;;;3.28;2.38;;;;;;;;;;1027702;28;20030;-74
2023/04/22 00:20:02;;;;;;;3.90;2.13;;;;;;;;;;1028202;28;20069;-74
2023/04/22 00:20:33;;;;;;;4.72;3.40;;;;;;;;;;1032539;28;20023;-74
2023/04/22 00:21:05;;;;;;;2.70;1.52;;;;;;;;;;1032264;28;20033;-74
2023/04/22 00:21:35;;;;;;;7.65;3.80;;;;;;;;;;1027710;28;20023;-74
2023/04/22 00:22:05;;;;;;;7.63;3.50;;;;;;;;;;1028161;28;20058;-74
2023/04/22 00:22:36;;;;;;;11.90;2.72;;;;;;;;;;1027962;28;20029;-74
2023/04/22 00:23:06;;;;;;;17.90;3.75;;;;;;;;;;1028120;28;20019;-73
2023/04/22 00:23:37;;;;;;;6.10;2.13;;;;;;;;;;1032140;28;20104;-73
2023/04/22 00:24:07;;;;;;;9.77;4.20;;;;;;;;;;1032313;28;20076;-73
2023/04/22 00:24:38;;;;;;;4.07;3.05;;;;;;;;;;1032314;28;20019;-73
2023/04/22 00:25:08;;;;;;;6.55;3.42;;;;;;;;;;1032550;28;20478;-73
2023/04/22 00:25:39;;;;;;;4.68;4.05;;;;;;;;;;1027613;28;20089;-73
2023/04/22 00:26:10;;;;;;;5.63;3.25;;;;;;;;;;1027911;28;20074;-73
2023/04/22 00:26:41;;;;;;;7.25;3.92;;;;;;;;;;1028192;28;20026;-73
2023/04/22 00:27:11;;;;;;;4.30;3.28;;;;;;;;;;1028266;28;20019;-73
2023/04/22 00:27:43;;;;;;;12.30;4.57;;;;;;;;;;1027383;28;20099;-73
2023/04/22 00:28:14;;;;;;;7.53;3.28;;;;;;;;;;1027987;28;20026;-73
2023/04/22 00:28:44;;;;;;;9.30;4.65;;;;;;;;;;1027927;28;20026;-73
2023/04/22 00:29:15;;;;;;;4.10;2.95;;;;;;;;;;1028160;28;20466;-73
2023/04/22 00:29:45;;;;;;;8.45;4.32;;;;;;;;;;1028295;28;20030;-73
2023/04/22 00:30:16;;;;;;;5.40;3.42;;;;;;;;;;1032378;28;20026;-73
2023/04/22 00:30:46;;;;;;;5.55;3.97;;;;;;;;;;1032020;28;20045;-73
2023/04/22 00:31:17;;;;;;;5.03;3.53;;;;;;;;;;1032333;28;20100;-73
2023/04/22 00:31:47;;;;;;;6.63;3.30;;;;;;;;;;1032150;28;20022;-73
2023/04/22 00:32:18;;;;;;;21.20;3.75;;;;;;;;;;1027826;28;20023;-73
2023/04/22 00:32:48;;;;;;;9.02;4.18;;;;;;;;;;1027808;28;20553;-73
2023/04/22 00:33:18;;;;;;;5.40;2.72;;;;;;;;;;1025758;28;20019;-73
2023/04/22 00:33:49;;;;;;;3.92;2.50;;;;;;;;;;1026418;28;20027;-73
2023/04/22 00:34:19;;;;;;;6.65;3.60;;;;;;;;;;1028488;28;20033;-73
2023/04/22 00:34:50;;;;;;;3.97;3.40;;;;;;;;;;1028070;28;20553;-73
2023/04/22 00:35:20;;;;;;;5.90;2.55;;;;;;;;;;1032023;28;20470;-73
2023/04/22 00:35:53;;;;;;;9.93;4.00;;;;;;;;;;1032316;28;20394;-73
2023/04/22 00:36:23;;;;;;;10.85;4.55;;;;;;;;;;1027718;28;20019;-73
2023/04/22 00:36:54;;;;;;;4.85;2.67;;;;;;;;;;1027913;28;20027;-73
2023/04/22 00:37:24;;;;;;;4.88;2.72;;;;;;;;;;1028065;28;20069;-73
2023/04/22 00:37:55;;;;;;;17.45;2.60;;;;;;;;;;1028223;28;20023;-73
2023/04/22 00:38:25;;;;;;;5.25;2.95;;;;;;;;;;1032284;28;20474;-73
2023/04/22 00:38:56;;;;;;;5.50;2.88;;;;;;;;;;1032232;28;20026;-73
2023/04/22 00:39:26;;;;;;;5.25;3.45;;;;;;;;;;1032103;28;20018;-73
2023/04/22 00:39:57;;;;;;;10.98;3.40;;;;;;;;;;1027817;28;20030;-73
2023/04/22 00:40:27;;;;;;;6.50;2.95;;;;;;;;;;1027852;28;20405;-73
2023/04/22 00:40:58;;;;;;;2.05;1.88;;;;;;;;;;1028175;28;20565;-73
2023/04/22 00:41:29;;;;;;;4.47;3.40;;;;;;;;;;1027612;28;21205;-73
2023/04/22 00:42:00;;;;;;;5.90;2.67;;;;;;;;;;1028012;28;20116;-73
2023/04/22 00:42:31;;;;;;;5.95;3.67;;;;;;;;;;1027616;28;20026;-73
2023/04/22 00:43:02;;;;;;;6.03;3.35;;;;;;;;;;1023538;29;20034;-73
2023/04/22 00:43:32;;;;;;;7.00;3.30;;;;;;;;;;1023305;29;20015;-73
2023/04/22 00:44:03;;;;;;;6.25;4.05;;;;;;;;;;1024034;28;20015;-73
2023/04/22 00:44:34;;;;;;;3.50;2.53;;;;;;;;;;1029101;28;20077;-73
2023/04/22 00:45:09;;;;;;;5.80;5.20;;;;;;;;;;1032314;28;20421;-73
2023/04/22 00:45:39;;;;;;;12.63;3.10;;;;;;;;;;1027438;28;20026;-73
2023/04/22 00:46:10;;;;;;;6.82;3.55;;;;;;;;;;1027955;28;20025;-73
2023/04/22 00:46:40;;;;;;;4.18;2.60;;;;;;;;;;1027757;28;20075;-73
2023/04/22 00:47:11;;;;;;;5.70;3.13;;;;;;;;;;1027516;28;20514;-73
2023/04/22 00:47:43;;;;;;;6.93;4.47;;;;;;;;;;1032049;28;20022;-73
2023/04/22 00:48:14;;;;;;;2.40;2.17;;;;;;;;;;1032069;28;20022;-73
2023/04/22 00:48:45;;;;;;;7.25;3.35;;;;;;;;;;1032080;28;20018;-73
2023/04/22 00:49:18;;;;;;;6.95;3.22;;;;;;;;;;1032154;28;20035;-73
2023/04/22 00:49:49;;;;;;;10.48;3.78;;;;;;;;;;1032184;28;20493;-73
2023/04/22 00:50:19;;;;;;;8.25;3.72;;;;;;;;;;1032139;28;20029;-73
2023/04/22 00:50:50;;;;;;;9.15;5.00;;;;;;;;;;1032158;28;20073;-73
2023/04/22 00:51:20;;;;;;;3.15;2.53;;;;;;;;;;1031978;28;20172;-73
2023/04/22 00:51:51;;;;;;;6.20;2.28;;;;;;;;;;1032008;28;20560;-73
2023/04/22 00:52:21;;;;;;;12.68;3.80;;;;;;;;;;1032312;28;20109;-73
2023/04/22 00:52:52;;;;;;;4.45;3.05;;;;;;;;;;1032001;28;20066;-73
2023/04/22 00:53:22;;;;;;;13.50;3.78;;;;;;;;;;1027602;28;20034;-73
2023/04/22 00:53:53;;;;;;;4.47;3.25;;;;;;;;;;1027929;28;20367;-73
2023/04/22 00:54:23;;;;;;;16.25;3.47;;;;;;;;;;1028346;28;20129;-73
2023/04/22 00:54:54;;;;;;;3.72;2.13;;;;;;;;;;1028164;28;20117;-73
2023/04/22 00:55:25;;;;;;;8.35;3.75;;;;;;;;;;1030900;28;20026;-73
2023/04/22 00:55:56;;;;;;;8.73;3.47;;;;;;;;;;1032187;28;20030;-73
2023/04/22 00:56:27;;;;;;;2.65;2.28;;;;;;;;;;1032293;28;20053;-73
2023/04/22 00:56:58;;;;;;;6.68;3.95;;;;;;;;;;1033392;28;20206;-73
2023/04/22 00:57:29;;;;;;;5.55;2.25;;;;;;;;;;1032194;28;20105;-73
2023/04/22 00:58:01;;;;;;;5.72;3.17;;;;;;;;;;1032143;28;20065;-73
2023/04/22 00:58:32;;;;;;;19.08;3.20;;;;;;;;;;1031973;28;20046;-73
2023/04/22 00:59:02;;;;;;;3.50;2.08;;;;;;;;;;1033187;28;20022;-73
2023/04/22 00:59:33;;;;;;;2.83;2.00;;;;;;;;;;1027515;28;20479;-73
2023/04/22 01:00:04;;;;;;;2.97;2.60;;;;;;;;;;1027711;28;20302;-73
2023/04/22 01:00:35;;;;;;;7.93;2.83;;;;;;;;;;1025713;28;20113;-73
2023/04/22 01:01:05;;;;;;;19.20;3.28;;;;;;;;;;1028081;28;20019;-73
2023/04/22 01:01:36;;;;;;;6.82;3.70;;;;;;;;;;1029256;28;20117;-73
2023/04/22 01:02:07;;;;;;;6.72;3.35;;;;;;;;;;1030273;28;20014;-73
2023/04/22 01:02:37;;;;;;;12.10;3.00;;;;;;;;;;1033945;28;20034;-73
2023/04/22 01:03:08;;;;;;;4.72;2.60;;;;;;;;;;1032255;28;20054;-73
2023/04/22 01:03:39;;;;;;;14.07;3.97;;;;;;;;;;1032460;28;20026;-73
2023/04/22 01:04:11;;;;;;;4.22;2.30;;;;;;;;;;1032173;28;20046;-73
2023/04/22 01:04:41;;;;;;;3.80;1.75;;;;;;;;;;1031867;28;20061;-73
2023/04/22 01:05:12;;;;;;;17.08;3.88;;;;;;;;;;1032264;28;20414;-73
2023/04/22 01:05:44;;;;;;;3.22;2.30;;;;;;;;;;1031984;28;20042;-73
2023/04/22 01:06:15;;;;;;;4.68;2.15;;;;;;;;;;1031271;28;20029;-73
2023/04/22 01:06:46;;;;;;;4.72;2.78;;;;;;;;;;1031880;28;20386;-73
2023/04/22 01:07:16;;;;;;;4.55;2.13;;;;;;;;;;1032138;28;20105;-73
2023/04/22 01:07:47;;;;;;;3.22;2.17;;;;;;;;;;1031863;28;20032;-73
2023/04/22 01:08:17;;;;;;;4.07;2.75;;;;;;;;;;1032302;28;20027;-73
2023/04/22 01:08:48;;;;;;;4.00;2.67;;;;;;;;;;1031971;28;20087;-73
2023/04/22 01:09:21;;;;;;;6.35;2.97;;;;;;;;;;1032202;28;20026;-73
2023/04/22 01:09:52;;;;;;;9.43;2.88;;;;;;;;;;1032150;28;20076;-73
2023/04/22 01:10:23;;;;;;;5.18;4.40;;;;;;;;;;1032131;28;20026;-73
2023/04/22 01:10:53;;;;;;;4.57;2.17;;;;;;;;;;1027646;28;20038;-73
2023/04/22 01:11:24;;;;;;;3.55;2.78;;;;;;;;;;1027586;28;20026;-73
2023/04/22 01:11:55;;;;;;;6.57;3.55;;;;;;;;;;1027973;28;20058;-73
2023/04/22 01:12:25;;;;;;;6.53;3.97;;;;;;;;;;1027855;28;20502;-73
2023/04/22 01:12:56;;;;;;;6.35;2.45;;;;;;;;;;1032309;28;20026;-73
2023/04/22 01:13:26;;;;;;;7.07;3.97;;;;;;;;;;1030746;28;20379;-74
2023/04/22 01:13:57;;;;;;;5.55;2.40;;;;;;;;;;1031966;28;20141;-74
2023/04/22 01:14:27;;;;;;;7.15;3.58;;;;;;;;;;1032173;28;20092;-74
2023/04/22 01:14:58;;;;;;;5.30;2.03;;;;;;;;;;1032316;28;20030;-74
2023/04/22 01:15:28;;;;;;;16.10;3.03;;;;;;;;;;1031707;28;20058;-74
2023/04/22 01:16:00;;;;;;;14.43;3.33;;;;;;;;;;1031060;28;20064;-74
2023/04/22 01:16:32;;;;;;;5.63;2.30;;;;;;;;;;1031862;28;20076;-74
2023/04/22 01:17:03;;;;;;;3.95;1.95;;;;;;;;;;1028009;28;20022;-74
2023/04/22 01:17:34;;;;;;;5.47;3.55;;;;;;;;;;1027592;28;20605;-74
2023/04/22 01:18:05;;;;;;;7.70;2.53;;;;;;;;;;1027824;28;20026;-74
2023/04/22 01:18:35;;;;;;;5.53;2.65;;;;;;;;;;1027971;28;20035;-74
2023/04/22 01:19:07;;;;;;;8.02;2.08;;;;;;;;;;1032091;28;20033;-74
2023/04/22 01:19:37;;;;;;;3.17;2.00;;;;;;;;;;1027678;28;20033;-74
2023/04/22 01:20:10;;;;;;;14.68;4.53;;;;;;;;;;1027753;28;20030;-74
2023/04/22 01:20:41;;;;;;;6.88;3.88;;;;;;;;;;1026856;28;20021;-74
2023/04/22 01:21:11;;;;;;;5.82;2.40;;;;;;;;;;1027859;28;20030;-74
2023/04/22 01:21:44;;;;;;;9.55;3.70;;;;;;;;;;1027156;28;20022;-74
2023/04/22 01:22:14;;;;;;;4.00;1.67;;;;;;;;;;1032923;28;20023;-74
2023/04/22 01:22:45;;;;;;;3.33;3.03;;;;;;;;;;1026950;28;20050;-74
2023/04/22 01:23:19;;;;;;;7.78;2.97;;;;;;;;;;1028585;28;20037;-74
2023/04/22 01:23:50;;;;;;;6.32;2.35;;;;;;;;;;1027481;28;20131;-74
2023/04/22 01:24:20;;;;;;;8.50;4.50;;;;;;;;;;1028281;28;20054;-74
2023/04/22 01:24:51;;;;;;;5.03;3.15;;;;;;;;;;1027502;28;20062;-74
2023/04/22 01:25:22;;;;;;;4.53;2.97;;;;;;;;;;1023286;28;20074;-74
2023/04/22 01:25:52;;;;;;;2.72;2.08;;;;;;;;;;1024645;28;20494;-74
2023/04/22 01:26:23;;;;;;;5.93;3.22;;;;;;;;;;1026811;28;20406;-74
2023/04/22 01:26:53;;;;;;;3.70;2.35;;;;;;;;;;1027906;28;20114;-74
2023/04/22 01:27:24;;;;;;;4.20;2.00;;;;;;;;;;1031780;28;20026;-74
2023/04/22 01:27:55;;;;;;;18.88;3.47;;;;;;;;;;1032625;28;20096;-74
2023/04/22 01:28:25;;;;;;;4.80;2.50;;;;;;;;;;1031783;28;20022;-74
2023/04/22 01:28:56;;;;;;;5.15;3.38;;;;;;;;;;1032188;28;20030;-74
2023/04/22 01:29:26;;;;;;;8.77;4.65;;;;;;;;;;1027581;28;20423;-74
2023/04/22 01:29:57;;;;;;;16.77;3.28;;;;;;;;;;1028422;28;20082;-74
2023/04/22 01:30:27;;;;;;;4.95;2.78;;;;;;;;;;1027395;28;20054;-74
2023/04/22 01:30:58;;;;;;;4.53;2.72;;;;;;;;;;1027686;28;20054;-74
2023/04/22 01:31:29;;;;;;;6.22;2.45;;;;;;;;;;1031974;28;20034;-74
2023/04/22 01:31:59;;;;;;;4.55;2.03;;;;;;;;;;1032126;28;20482;-73
2023/04/22 01:32:31;;;;;;;2.53;2.25;;;;;;;;;;1031780;28;20030;-73
2023/04/22 01:33:01;;;;;;;8.55;3.92;;;;;;;;;;1031370;28;20026;-73
2023/04/22 01:33:32;;;;;;;14.18;2.90;;;;;;;;;;1032010;28;20462;-73
2023/04/22 01:34:02;;;;;;;11.00;3.72;;;;;;;;;;1030869;28;20029;-73
2023/04/22 01:34:33;;;;;;;10.20;2.90;;;;;;;;;;1031321;28;20041;-73
2023/04/22 01:35:04;;;;;;;3.67;2.72;;;;;;;;;;1031658;28;20596;-73
2023/04/22 01:35:35;;;;;;;4.85;2.78;;;;;;;;;;1031526;28;20596;-73
2023/04/22 01:36:06;;;;;;;2.70;1.88;;;;;;;;;;1030953;28;20073;-73
2023/04/22 01:36:37;;;;;;;11.95;3.72;;;;;;;;;;1031749;28;20026;-74
2023/04/22 01:37:07;;;;;;;3.60;1.38;;;;;;;;;;1031998;28;20027;-74
2023/04/22 01:37:38;;;;;;;5.53;2.45;;;;;;;;;;1031626;28;20169;-74
2023/04/22 01:38:09;;;;;;;3.75;2.00;;;;;;;;;;1027345;28;20026;-74
2023/04/22 01:38:40;;;;;;;7.32;3.85;;;;;;;;;;1027745;28;20027;-74
2023/04/22 01:39:10;;;;;;;20.85;3.85;;;;;;;;;;1027665;28;20023;-74
2023/04/22 01:39:41;;;;;;;5.72;1.77;;;;;;;;;;1027297;28;20117;-74
2023/04/22 01:40:12;;;;;;;9.27;2.70;;;;;;;;;;1027568;28;20425;-74
2023/04/22 01:40:43;;;;;;;7.90;2.30;;;;;;;;;;1027271;28;20050;-73
2023/04/22 01:41:13;;;;;;;2.65;1.92;;;;;;;;;;1027850;28;20029;-73
2023/04/22 01:41:44;;;;;;;5.40;1.92;;;;;;;;;;1023819;28;20119;-73
2023/04/22 01:42:15;;;;;;;7.40;3.10;;;;;;;;;;1020379;29;20062;-73
2023/04/22 01:42:45;;;;;;;7.20;2.97;;;;;;;;;;1023397;29;20117;-73
2023/04/22 01:43:16;;;;;;;5.75;1.98;;;;;;;;;;1024069;28;20483;-73
2023/04/22 01:43:47;;;;;;;24.15;4.68;;;;;;;;;;1027611;28;20041;-73
2023/04/22 01:44:18;;;;;;;2.83;2.03;;;;;;;;;;1027155;28;20035;-73
2023/04/22 01:44:49;;;;;;;6.20;2.28;;;;;;;;;;1027293;28;20022;-73
2023/04/22 01:45:19;;;;;;;4.78;1.83;;;;;;;;;;1027355;28;20030;-73
2023/04/22 01:45:49;;;;;;;10.07;3.25;;;;;;;;;;1027850;28;20397;-73
2023/04/22 01:46:20;;;;;;;13.10;5.07;;;;;;;;;;1027429;28;20059;-73
2023/04/22 01:46:50;;;;;;;7.72;3.42;;;;;;;;;;1027411;28;20015;-73
2023/04/22 01:47:21;;;;;;;6.40;2.00;;;;;;;;;;1031962;28;20118;-73
2023/04/22 01:47:52;;;;;;;22.20;3.53;;;;;;;;;;1031867;28;20117;-73
2023/04/22 01:48:22;;;;;;;2.85;2.10;;;;;;;;;;1031846;28;20422;-73
2023/04/22 01:48:53;;;;;;;10.32;2.80;;;;;;;;;;1030447;28;20026;-73
2023/04/22 01:49:23;;;;;;;11.95;3.72;;;;;;;;;;1030661;28;20026;-74
2023/04/22 01:49:54;;;;;;;5.53;2.85;;;;;;;;;;1031688;28;20030;-74
2023/04/22 01:50:24;;;;;;;3.65;2.17;;;;;;;;;;1031832;28;20022;-73
2023/04/22 01:50:55;;;;;;;11.40;4.47;;;;;;;;;;1032353;28;20056;-73
2023/04/22 01:51:25;;;;;;;10.75;2.17;;;;;;;;;;1031528;28;20109;-73
2023/04/22 01:51:59;;;;;;;15.45;3.33;;;;;;;;;;1027168;28;20478;-73
2023/04/22 01:52:30;;;;;;;3.80;2.30;;;;;;;;;;1027528;28;20035;-73
2023/04/22 01:53:00;;;;;;;10.77;2.97;;;;;;;;;;1025363;28;20026;-73
2023/04/22 01:53:31;;;;;;;5.95;3.58;;;;;;;;;;1025108;28;20016;-73
2023/04/22 01:54:03;;;;;;;3.72;2.58;;;;;;;;;;1022485;29;20027;-73
2023/04/22 01:54:33;;;;;;;9.15;3.53;;;;;;;;;;1023305;28;20027;-73
2023/04/22 01:55:04;;;;;;;13.05;6.05;;;;;;;;;;1027164;28;20031;-73
2023/04/22 01:55:36;;;;;;;8.93;3.55;;;;;;;;;;1026146;28;20482;-73
2023/04/22 01:56:06;;;;;;;3.47;2.33;;;;;;;;;;1026497;28;20023;-73
2023/04/22 01:56:39;;;;;;;11.88;4.43;;;;;;;;;;1026743;28;20023;-73
2023/04/22 01:57:12;;;;;;;9.02;3.90;;;;;;;;;;1027869;28;20498;-73
2023/04/22 01:57:43;;;;;;;8.63;3.17;;;;;;;;;;1027386;28;20655;-73
2023/04/22 01:58:13;;;;;;;8.85;3.92;;;;;;;;;;1026957;28;20061;-73
2023/04/22 01:58:44;;;;;;;10.50;3.05;;;;;;;;;;1026868;28;20154;-73
2023/04/22 01:59:14;;;;;;;4.75;2.88;;;;;;;;;;1027017;28;20023;-73
2023/04/22 01:59:44;;;;;;;7.93;3.17;;;;;;;;;;1028012;28;20518;-73
2023/04/22 02:00:15;;;;;;;7.95;3.95;;;;;;;;;;1030919;28;20506;-73
2023/04/22 02:00:46;;;;;;;4.82;2.33;;;;;;;;;;1029332;28;20031;-73
2023/04/22 02:01:16;;;;;;;9.13;2.97;;;;;;;;;;1030908;28;20136;-73
2023/04/22 02:01:47;;;;;;;10.35;2.28;;;;;;;;;;1031531;28;20022;-73
2023/04/22 02:02:17;;;;;;;8.93;3.05;;;;;;;;;;1031358;28;20030;-73
2023/04/22 02:02:48;;;;;;;12.10;3.80;;;;;;;;;;1030657;28;20457;-73
2023/04/22 02:03:18;;;;;;;8.63;3.88;;;;;;;;;;1026253;28;20125;-73
2023/04/22 02:03:49;;;;;;;8.00;3.58;;;;;;;;;;1026820;28;20027;-73
2023/04/22 02:04:19;;;;;;;11.35;4.10;;;;;;;;;;1026891;28;20074;-73
2023/04/22 02:04:50;;;;;;;6.90;2.45;;;;;;;;;;1025141;28;20514;-73
2023/04/22 02:05:20;;;;;;;12.93;6.85;;;;;;;;;;1026868;28;20056;-73
2023/04/22 02:05:50;;;;;;;10.05;4.05;;;;;;;;;;1026318;28;20031;-73
2023/04/22 02:06:21;;;;;;;12.63;4.07;;;;;;;;;;1031168;28;20417;-73
2023/04/22 02:06:51;;;;;;;21.45;3.55;;;;;;;;;;1030987;28;20434;-73
2023/04/22 02:07:22;;;;;;;5.20;1.75;;;;;;;;;;1031447;28;20022;-73
2023/04/22 02:07:53;;;;;;;5.95;2.28;;;;;;;;;;1031287;28;20053;-73
2023/04/22 02:08:23;;;;;;;3.50;2.15;;;;;;;;;;1026354;28;20029;-73
2023/04/22 02:08:54;;;;;;;13.13;5.03;;;;;;;;;;1027277;28;20121;-73
2023/04/22 02:09:24;;;;;;;10.00;4.15;;;;;;;;;;1026169;28;20057;-73
2023/04/22 02:09:55;;;;;;;11.48;3.63;;;;;;;;;;1026815;28;20134;-73
2023/04/22 02:10:25;;;;;;;5.90;3.42;;;;;;;;;;1032102;28;20111;-73
2023/04/22 02:10:57;;;;;;;32.95;4.75;;;;;;;;;;1032019;28;20117;-73
2023/04/22 02:11:27;;;;;;;15.80;5.35;;;;;;;;;;1032700;28;20026;-73
2023/04/22 02:11:58;;;;;;;19.30;5.35;;;;;;;;;;1031383;28;20030;-73
2023/04/22 02:12:28;;;;;;;14.93;3.13;;;;;;;;;;1029308;28;20398;-74
2023/04/22 02:12:59;;;;;;;13.05;3.22;;;;;;;;;;1027483;28;20081;-74
2023/04/22 02:13:36;;;;;;;20.88;3.28;;;;;;;;;;1023251;28;20082;-74
2023/04/22 02:14:06;;;;;;;22.58;2.95;;;;;;;;;;1023565;29;20121;-74
2023/04/22 02:14:37;;;;;;;6.63;2.65;;;;;;;;;;1021126;28;20088;-75
2023/04/22 02:15:08;;;;;;;8.05;2.55;;;;;;;;;;1023006;28;20035;-74
2023/04/22 02:15:40;;;;;;;7.32;3.00;;;;;;;;;;1023487;28;20054;-74
2023/04/22 02:16:10;;;;;;;12.98;3.95;;;;;;;;;;1021266;29;20035;-74
2023/04/22 02:16:41;;;;;;;3.78;2.65;;;;;;;;;;1023721;28;20026;-74
2023/04/22 02:17:11;;;;;;;9.48;2.63;;;;;;;;;;1027140;28;20533;-74
2023/04/22 02:17:42;;;;;;;15.32;3.97;;;;;;;;;;1027049;28;20731;-74
2023/04/22 02:18:12;;;;;;;8.35;2.33;;;;;;;;;;1032089;28;20034;-74
2023/04/22 02:18:43;;;;;;;7.15;3.83;;;;;;;;;;1031134;28;20010;-74
2023/04/22 02:19:13;;;;;;;16.08;3.17;;;;;;;;;;1032660;28;20015;-74
2023/04/22 02:19:44;;;;;;;13.02;3.75;;;;;;;;;;1031898;28;20710;-74
2023/04/22 02:20:15;;;;;;;5.97;3.33;;;;;;;;;;1026139;28;20058;-74
2023/04/22 02:20:45;;;;;;;29.45;5.55;;;;;;;;;;1026270;28;20362;-74
2023/04/22 02:21:16;;;;;;;8.27;2.95;;;;;;;;;;1027838;28;20027;-74
2023/04/22 02:21:46;;;;;;;15.02;4.00;;;;;;;;;;1026979;28;20129;-74
2023/04/22 02:22:17;;;;;;;41.22;4.80;;;;;;;;;;1026449;28;20031;-74
2023/04/22 02:22:49;;;;;;;3.75;1.85;;;;;;;;;;1026779;28;20041;-74
2023/04/22 02:23:20;;;;;;;13.32;2.33;;;;;;;;;;1027331;28;20474;-74
2023/04/22 02:23:50;;;;;;;14.00;4.47;;;;;;;;;;1026988;28;20117;-74
2023/04/22 02:24:20;;;;;;;12.43;3.33;;;;;;;;;;1026277;28;20093;-75
2023/04/22 02:24:51;;;;;;;9.25;2.03;;;;;;;;;;1027999;28;20106;-74
2023/04/22 02:25:21;;;;;;;17.92;4.22;;;;;;;;;;1027232;28;20118;-74
2023/04/22 02:25:54;;;;;;;4.97;2.72;;;;;;;;;;1026528;28;20033;-74
2023/04/22 02:26:25;;;;;;;24.23;3.50;;;;;;;;;;1027349;28;20719;-73
2023/04/22 02:26:55;;;;;;;5.47;2.35;;;;;;;;;;1030939;28;20053;-73
2023/04/22 02:27:26;;;;;;;7.60;4.07;;;;;;;;;;1027603;28;20444;-73
2023/04/22 02:27:56;;;;;;;12.60;4.07;;;;;;;;;;1028090;28;20022;-73
2023/04/22 02:28:27;;;;;;;10.60;3.58;;;;;;;;;;1027521;28;20129;-73
2023/04/22 02:28:57;;;;;;;9.07;3.55;;;;;;;;;;1026814;28;20423;-75
2023/04/22 02:29:28;;;;;;;8.70;2.78;;;;;;;;;;1031347;28;20034;-74
2023/04/22 02:29:58;;;;;;;4.97;2.28;;;;;;;;;;1030508;28;20022;-74
2023/04/22 02:30:29;;;;;;;20.75;4.63;;;;;;;;;;1030827;28;20030;-74
2023/04/22 02:31:00;;;;;;;5.82;4.68;;;;;;;;;;1032282;28;20033;-74
2023/04/22 02:31:30;;;;;;;7.30;3.25;;;;;;;;;;1031108;28;20035;-74
2023/04/22 02:32:00;;;;;;;12.32;2.83;;;;;;;;;;1030749;28;20022;-73
2023/04/22 02:32:31;;;;;;;7.50;2.50;;;;;;;;;;1025914;28;20050;-73
2023/04/22 02:33:02;;;;;;;21.63;3.05;;;;;;;;;;1026334;28;20391;-73
2023/04/22 02:33:33;;;;;;;13.68;4.38;;;;;;;;;;1027104;28;20027;-73
2023/04/22 02:34:03;;;;;;;3.85;2.10;;;;;;;;;;1027303;28;20023;-73
2023/04/22 02:34:34;;;;;;;3.75;1.75;;;;;;;;;;1027283;28;20037;-73
2023/04/22 02:35:05;;;;;;;7.57;2.88;;;;;;;;;;1028132;28;20054;-73
2023/04/22 02:35:36;;;;;;;5.30;2.67;;;;;;;;;;1025951;28;20089;-73
2023/04/22 02:36:06;;;;;;;9.60;3.67;;;;;;;;;;1026505;28;20069;-74
2023/04/22 02:36:37;;;;;;;7.43;3.70;;;;;;;;;;1026027;28;20019;-74
2023/04/22 02:37:07;;;;;;;12.00;2.78;;;;;;;;;;1027707;28;20155;-73
2023/04/22 02:37:38;;;;;;;7.45;3.15;;;;;;;;;;1027065;28;20098;-73
2023/04/22 02:38:09;;;;;;;3.40;1.75;;;;;;;;;;1026751;28;20023;-73
2023/04/22 02:38:40;;;;;;;8.55;2.72;;;;;;;;;;1025835;28;20033;-73
2023/04/22 02:39:10;;;;;;;7.15;2.60;;;;;;;;;;1021733;28;20130;-73
2023/04/22 02:39:41;;;;;;;10.85;3.10;;;;;;;;;;1022289;28;20042;-73
2023/04/22 02:40:11;;;;;;;5.00;3.90;;;;;;;;;;1027616;28;20026;-73
2023/04/22 02:40:42;;;;;;;7.53;3.40;;;;;;;;;;1028323;28;20031;-73
2023/04/22 02:41:12;;;;;;;7.80;2.92;;;;;;;;;;1028534;28;20030;-73
2023/04/22 02:41:42;;;;;;;4.95;2.25;;;;;;;;;;1027849;28;20097;-73
2023/04/22 02:42:13;;;;;;;7.18;1.67;;;;;;;;;;1032011;28;20026;-73
2023/04/22 02:42:43;;;;;;;4.03;3.20;;;;;;;;;;1030758;28;20034;-73
2023/04/22 02:43:14;;;;;;;6.75;2.75;;;;;;;;;;1032531;28;20014;-74
2023/04/22 02:43:45;;;;;;;11.13;2.78;;;;;;;;;;1031886;28;20080;-73
2023/04/22 02:44:15;;;;;;;15.30;2.13;;;;;;;;;;1031459;28;20121;-73
2023/04/22 02:44:46;;;;;;;9.65;3.13;;;;;;;;;;1028458;28;20026;-73
2023/04/22 02:45:16;;;;;;;16.58;4.13;;;;;;;;;;1030475;28;20018;-73
2023/04/22 02:45:47;;;;;;;4.22;2.42;;;;;;;;;;1032378;28;20030;-73
2023/04/22 02:46:17;;;;;;;6.90;2.28;;;;;;;;;;1032937;28;20521;-73
2023/04/22 02:46:48;;;;;;;5.15;1.75;;;;;;;;;;1031598;28;20034;-73
2023/04/22 02:47:18;;;;;;;9.10;2.65;;;;;;;;;;1031722;28;20029;-73
2023/04/22 02:47:49;;;;;;;2.30;1.73;;;;;;;;;;1030569;28;20084;-73
2023/04/22 02:48:19;;;;;;;7.50;3.35;;;;;;;;;;1031402;28;20031;-73
2023/04/22 02:48:50;;;;;;;6.78;2.47;;;;;;;;;;1030827;28;20118;-73
2023/04/22 02:49:20;;;;;;;6.60;2.55;;;;;;;;;;1026188;28;20029;-73
2023/04/22 02:49:50;;;;;;;9.95;3.70;;;;;;;;;;1027471;28;20035;-73
2023/04/22 02:50:21;;;;;;;3.47;2.05;;;;;;;;;;1022832;28;20059;-75
2023/04/22 02:50:51;;;;;;;5.90;2.15;;;;;;;;;;1024075;28;20039;-74
2023/04/22 02:51:22;;;;;;;6.13;2.47;;;;;;;;;;1028502;28;20550;-73
2023/04/22 02:51:53;;;;;;;10.85;1.90;;;;;;;;;;1023540;28;20026;-74
2023/04/22 02:52:23;;;;;;;6.30;2.60;;;;;;;;;;1027846;28;20076;-73
2023/04/22 02:52:53;;;;;;;3.92;2.50;;;;;;;;;;1026276;28;20030;-74
2023/04/22 02:53:24;;;;;;;9.07;2.80;;;;;;;;;;1025853;28;20030;-73
2023/04/22 02:53:54;;;;;;;2.55;1.88;;;;;;;;;;1026956;28;20027;-74
2023/04/22 02:54:25;;;;;;;4.45;2.28;;;;;;;;;;1021843;28;20035;-75
2023/04/22 02:54:55;;;;;;;4.80;2.03;;;;;;;;;;1022549;29;20055;-73
2023/04/22 02:55:27;;;;;;;5.55;3.03;;;;;;;;;;1020369;28;20479;-74
2023/04/22 02:55:57;;;;;;;12.75;3.03;;;;;;;;;;1022554;28;20162;-73
2023/04/22 02:56:28;;;;;;;10.35;3.38;;;;;;;;;;1027075;28;20034;-73
2023/04/22 02:57:00;;;;;;;6.38;2.55;;;;;;;;;;1028514;28;20030;-73
2023/04/22 02:57:30;;;;;;;2.22;1.15;;;;;;;;;;1027212;28;20047;-73
2023/04/22 02:58:01;;;;;;;7.70;2.67;;;;;;;;;;1032017;28;20022;-73
2023/04/22 02:58:31;;;;;;;9.90;3.13;;;;;;;;;;1031701;28;20026;-73
2023/04/22 02:59:02;;;;;;;3.30;1.83;;;;;;;;;;1031512;28;20394;-74
2023/04/22 02:59:33;;;;;;;5.43;2.13;;;;;;;;;;1031639;28;20054;-73
2023/04/22 03:00:04;;;;;;;3.55;2.70;;;;;;;;;;1030645;28;20033;-73
2023/04/22 03:00:34;;;;;;;6.32;3.33;;;;;;;;;;1031576;28;20037;-73
2023/04/22 03:01:05;;;;;;;7.35;3.15;;;;;;;;;;1028079;28;20027;-73
2023/04/22 03:01:35;;;;;;;4.63;2.40;;;;;;;;;;1027621;28;20027;-73
2023/04/22 03:02:06;;;;;;;4.53;2.88;;;;;;;;;;1027664;28;20109;-73
2023/04/22 03:02:37;;;;;;;5.95;2.95;;;;;;;;;;1027289;28;20109;-74
2023/04/22 03:03:07;;;;;;;2.55;2.30;;;;;;;;;;1027876;28;20030;-73
2023/04/22 03:03:38;;;;;;;4.13;2.05;;;;;;;;;;1027692;28;20030;-73